sensor_id;sensor_type;location;lat;lon;timestamp;P1;durP1;ratioP1;P2;durP2;ratioP2
9328;SDS011;4703;48.748;19.142;2023-09-19T00:01:00;13.40;;;11.63;;
9328;SDS011;4703;48.748;19.142;2023-09-19T00:03:27;13.63;;;12.30;;
9328;SDS011;4703;48.748;19.142;2023-09-19T00:05:55;13.13;;;11.93;;
9328;SDS011;4703;48.748;19.142;2023-09-19T00:08:24;13.53;;;12.17;;
9328;SDS011;4703;48.748;19.142;2023-09-19T00:10:51;13.70;;;12.40;;
9328;SDS011;4703;48.748;19.142;2023-09-19T00:13:19;14.50;;;13.10;;
9328;SDS011;4703;48.748;19.142;2023-09-19T00:15:47;14.07;;;12.67;;
9328;SDS011;4703;48.748;19.142;2023-09-19T00:18:17;12.87;;;11.57;;
9328;SDS011;4703;48.748;19.142;2023-09-19T00:20:47;13.10;;;11.90;;
9328;SDS011;4703;48.748;19.142;2023-09-19T00:23:15;15.47;;;11.63;;
9328;SDS011;4703;48.748;19.142;2023-09-19T00:25:43;14.33;;;12.83;;
9328;SDS011;4703;48.748;19.142;2023-09-19T00:28:11;13.00;;;11.80;;
9328;SDS011;4703;48.748;19.142;2023-09-19T00:30:39;14.10;;;12.53;;
9328;SDS011;4703;48.748;19.142;2023-09-19T00:33:10;13.33;;;12.00;;
9328;SDS011;4703;48.748;19.142;2023-09-19T00:35:52;14.50;;;12.90;;
9328;SDS011;4703;48.748;19.142;2023-09-19T00:38:21;13.40;;;12.17;;
9328;SDS011;4703;48.748;19.142;2023-09-19T00:40:53;14.20;;;12.30;;
9328;SDS011;4703;48.748;19.142;2023-09-19T00:43:24;12.40;;;11.10;;
9328;SDS011;4703;48.748;19.142;2023-09-19T00:45:52;13.90;;;12.47;;
9328;SDS011;4703;48.748;19.142;2023-09-19T00:48:22;13.23;;;12.03;;
9328;SDS011;4703;48.748;19.142;2023-09-19T00:50:51;16.07;;;12.00;;
9328;SDS011;4703;48.748;19.142;2023-09-19T00:53:23;14.30;;;13.00;;
9328;SDS011;4703;48.748;19.142;2023-09-19T00:55:51;14.07;;;12.87;;
9328;SDS011;4703;48.748;19.142;2023-09-19T00:58:19;14.30;;;12.90;;
9328;SDS011;4703;48.748;19.142;2023-09-19T01:00:48;14.00;;;12.47;;
9328;SDS011;4703;48.748;19.142;2023-09-19T01:03:17;13.90;;;12.50;;
9328;SDS011;4703;48.748;19.142;2023-09-19T01:05:45;16.20;;;12.70;;
9328;SDS011;4703;48.748;19.142;2023-09-19T01:08:12;13.33;;;12.10;;
9328;SDS011;4703;48.748;19.142;2023-09-19T01:10:42;12.73;;;11.47;;
9328;SDS011;4703;48.748;19.142;2023-09-19T01:15:59;12.37;;;11.13;;
9328;SDS011;4703;48.748;19.142;2023-09-19T01:21:33;11.53;;;10.53;;
9328;SDS011;4703;48.748;19.142;2023-09-19T01:30:40;13.07;;;11.70;;
9328;SDS011;4703;48.748;19.142;2023-09-19T01:33:10;13.90;;;12.57;;
9328;SDS011;4703;48.748;19.142;2023-09-19T01:35:38;13.87;;;12.50;;
9328;SDS011;4703;48.748;19.142;2023-09-19T01:38:08;14.20;;;12.40;;
9328;SDS011;4703;48.748;19.142;2023-09-19T01:40:40;12.70;;;11.40;;
9328;SDS011;4703;48.748;19.142;2023-09-19T01:43:12;14.30;;;12.67;;
9328;SDS011;4703;48.748;19.142;2023-09-19T01:51:34;13.93;;;12.53;;
9328;SDS011;4703;48.748;19.142;2023-09-19T01:54:12;13.87;;;12.17;;
9328;SDS011;4703;48.748;19.142;2023-09-19T01:56:50;13.07;;;11.67;;
9328;SDS011;4703;48.748;19.142;2023-09-19T01:59:52;16.90;;;12.70;;
9328;SDS011;4703;48.748;19.142;2023-09-19T02:02:25;15.00;;;13.50;;
9328;SDS011;4703;48.748;19.142;2023-09-19T02:04:55;13.80;;;12.30;;
9328;SDS011;4703;48.748;19.142;2023-09-19T02:07:22;14.43;;;12.77;;
9328;SDS011;4703;48.748;19.142;2023-09-19T02:09:49;12.57;;;11.37;;
9328;SDS011;4703;48.748;19.142;2023-09-19T02:12:16;13.60;;;12.20;;
9328;SDS011;4703;48.748;19.142;2023-09-19T02:14:43;13.93;;;12.63;;
9328;SDS011;4703;48.748;19.142;2023-09-19T02:17:10;13.90;;;12.50;;
9328;SDS011;4703;48.748;19.142;2023-09-19T02:19:38;13.17;;;11.90;;
9328;SDS011;4703;48.748;19.142;2023-09-19T02:22:06;13.70;;;12.40;;
9328;SDS011;4703;48.748;19.142;2023-09-19T02:24:33;14.30;;;12.90;;
9328;SDS011;4703;48.748;19.142;2023-09-19T02:27:01;13.27;;;11.97;;
9328;SDS011;4703;48.748;19.142;2023-09-19T02:29:31;14.27;;;12.87;;
9328;SDS011;4703;48.748;19.142;2023-09-19T02:32:00;12.07;;;10.97;;
9328;SDS011;4703;48.748;19.142;2023-09-19T02:34:28;13.30;;;12.10;;
9328;SDS011;4703;48.748;19.142;2023-09-19T02:36:55;14.07;;;12.77;;
9328;SDS011;4703;48.748;19.142;2023-09-19T02:39:22;13.20;;;11.80;;
9328;SDS011;4703;48.748;19.142;2023-09-19T02:41:49;12.90;;;11.60;;
9328;SDS011;4703;48.748;19.142;2023-09-19T02:44:17;15.77;;;12.73;;
9328;SDS011;4703;48.748;19.142;2023-09-19T02:46:46;14.90;;;13.60;;
9328;SDS011;4703;48.748;19.142;2023-09-19T02:49:13;14.57;;;13.17;;
9328;SDS011;4703;48.748;19.142;2023-09-19T02:51:41;14.17;;;12.60;;
9328;SDS011;4703;48.748;19.142;2023-09-19T02:54:08;14.00;;;12.33;;
9328;SDS011;4703;48.748;19.142;2023-09-19T02:56:35;13.30;;;11.90;;
9328;SDS011;4703;48.748;19.142;2023-09-19T02:59:03;12.97;;;11.77;;
9328;SDS011;4703;48.748;19.142;2023-09-19T03:01:30;13.50;;;12.30;;
9328;SDS011;4703;48.748;19.142;2023-09-19T03:03:58;15.40;;;13.90;;
9328;SDS011;4703;48.748;19.142;2023-09-19T03:06:25;12.50;;;11.30;;
9328;SDS011;4703;48.748;19.142;2023-09-19T03:08:53;14.93;;;13.43;;
9328;SDS011;4703;48.748;19.142;2023-09-19T03:11:22;14.43;;;12.97;;
9328;SDS011;4703;48.748;19.142;2023-09-19T03:13:52;14.30;;;12.87;;
9328;SDS011;4703;48.748;19.142;2023-09-19T03:16:20;17.33;;;13.00;;
9328;SDS011;4703;48.748;19.142;2023-09-19T03:18:51;14.27;;;12.77;;
9328;SDS011;4703;48.748;19.142;2023-09-19T03:21:18;14.70;;;13.10;;
9328;SDS011;4703;48.748;19.142;2023-09-19T03:23:45;14.70;;;12.50;;
9328;SDS011;4703;48.748;19.142;2023-09-19T03:26:13;16.10;;;13.27;;
9328;SDS011;4703;48.748;19.142;2023-09-19T03:28:42;15.13;;;12.30;;
9328;SDS011;4703;48.748;19.142;2023-09-19T03:31:09;16.77;;;15.03;;
9328;SDS011;4703;48.748;19.142;2023-09-19T03:33:37;13.87;;;12.40;;
9328;SDS011;4703;48.748;19.142;2023-09-19T03:36:05;14.93;;;12.10;;
9328;SDS011;4703;48.748;19.142;2023-09-19T03:38:32;14.70;;;13.30;;
9328;SDS011;4703;48.748;19.142;2023-09-19T03:41:01;14.90;;;13.50;;
9328;SDS011;4703;48.748;19.142;2023-09-19T03:43:28;15.27;;;13.67;;
9328;SDS011;4703;48.748;19.142;2023-09-19T03:45:55;14.57;;;13.07;;
9328;SDS011;4703;48.748;19.142;2023-09-19T03:48:22;15.30;;;13.70;;
9328;SDS011;4703;48.748;19.142;2023-09-19T03:50:49;14.03;;;12.73;;
9328;SDS011;4703;48.748;19.142;2023-09-19T03:53:17;18.50;;;15.30;;
9328;SDS011;4703;48.748;19.142;2023-09-19T03:55:45;14.80;;;13.30;;
9328;SDS011;4703;48.748;19.142;2023-09-19T03:58:12;14.57;;;13.27;;
9328;SDS011;4703;48.748;19.142;2023-09-19T04:00:40;15.90;;;14.20;;
9328;SDS011;4703;48.748;19.142;2023-09-19T04:03:07;16.83;;;14.07;;
9328;SDS011;4703;48.748;19.142;2023-09-19T04:05:34;15.97;;;13.63;;
9328;SDS011;4703;48.748;19.142;2023-09-19T04:08:01;15.97;;;13.80;;
9328;SDS011;4703;48.748;19.142;2023-09-19T04:10:29;15.60;;;14.00;;
9328;SDS011;4703;48.748;19.142;2023-09-19T04:12:56;16.00;;;14.50;;
9328;SDS011;4703;48.748;19.142;2023-09-19T04:15:23;14.40;;;13.00;;
9328;SDS011;4703;48.748;19.142;2023-09-19T04:17:51;13.83;;;12.40;;
9328;SDS011;4703;48.748;19.142;2023-09-19T04:20:18;15.27;;;13.77;;
9328;SDS011;4703;48.748;19.142;2023-09-19T04:22:46;15.47;;;13.70;;
9328;SDS011;4703;48.748;19.142;2023-09-19T04:25:13;14.20;;;12.90;;
9328;SDS011;4703;48.748;19.142;2023-09-19T04:27:41;15.00;;;13.50;;
9328;SDS011;4703;48.748;19.142;2023-09-19T04:30:08;19.43;;;15.73;;
9328;SDS011;4703;48.748;19.142;2023-09-19T04:32:38;15.40;;;13.07;;
9328;SDS011;4703;48.748;19.142;2023-09-19T04:35:08;15.40;;;13.90;;
9328;SDS011;4703;48.748;19.142;2023-09-19T04:37:37;16.23;;;14.57;;
9328;SDS011;4703;48.748;19.142;2023-09-19T04:40:06;15.23;;;13.80;;
9328;SDS011;4703;48.748;19.142;2023-09-19T04:42:44;13.77;;;12.33;;
9328;SDS011;4703;48.748;19.142;2023-09-19T04:45:11;15.40;;;13.90;;
9328;SDS011;4703;48.748;19.142;2023-09-19T04:47:38;15.00;;;13.20;;
9328;SDS011;4703;48.748;19.142;2023-09-19T04:50:06;16.30;;;14.13;;
9328;SDS011;4703;48.748;19.142;2023-09-19T04:52:41;15.60;;;14.00;;
9328;SDS011;4703;48.748;19.142;2023-09-19T04:55:11;15.47;;;13.97;;
9328;SDS011;4703;48.748;19.142;2023-09-19T04:57:46;15.77;;;12.93;;
9328;SDS011;4703;48.748;19.142;2023-09-19T05:00:17;15.03;;;13.47;;
9328;SDS011;4703;48.748;19.142;2023-09-19T05:02:45;17.10;;;15.30;;
9328;SDS011;4703;48.748;19.142;2023-09-19T05:05:16;16.00;;;14.13;;
9328;SDS011;4703;48.748;19.142;2023-09-19T05:07:43;15.47;;;13.97;;
9328;SDS011;4703;48.748;19.142;2023-09-19T05:10:12;15.47;;;13.90;;
9328;SDS011;4703;48.748;19.142;2023-09-19T05:12:40;14.23;;;12.73;;
9328;SDS011;4703;48.748;19.142;2023-09-19T05:15:07;15.30;;;13.80;;
9328;SDS011;4703;48.748;19.142;2023-09-19T05:17:35;15.40;;;14.00;;
9328;SDS011;4703;48.748;19.142;2023-09-19T05:20:02;18.90;;;13.93;;
9328;SDS011;4703;48.748;19.142;2023-09-19T05:23:00;16.70;;;15.10;;
9328;SDS011;4703;48.748;19.142;2023-09-19T05:25:29;15.73;;;14.13;;
9328;SDS011;4703;48.748;19.142;2023-09-19T05:27:58;21.10;;;15.10;;
9328;SDS011;4703;48.748;19.142;2023-09-19T05:30:27;16.60;;;14.90;;
9328;SDS011;4703;48.748;19.142;2023-09-19T05:32:55;18.20;;;16.40;;
9328;SDS011;4703;48.748;19.142;2023-09-19T05:35:23;17.83;;;15.93;;
9328;SDS011;4703;48.748;19.142;2023-09-19T05:37:54;18.10;;;16.30;;
9328;SDS011;4703;48.748;19.142;2023-09-19T05:40:22;17.97;;;15.07;;
9328;SDS011;4703;48.748;19.142;2023-09-19T05:42:49;16.97;;;15.17;;
9328;SDS011;4703;48.748;19.142;2023-09-19T05:45:17;17.30;;;15.50;;
9328;SDS011;4703;48.748;19.142;2023-09-19T05:47:49;17.13;;;14.70;;
9328;SDS011;4703;48.748;19.142;2023-09-19T05:50:17;18.00;;;16.10;;
9328;SDS011;4703;48.748;19.142;2023-09-19T05:52:51;18.60;;;16.47;;
9328;SDS011;4703;48.748;19.142;2023-09-19T05:55:19;17.30;;;15.47;;
9328;SDS011;4703;48.748;19.142;2023-09-19T05:57:53;19.07;;;15.90;;
9328;SDS011;4703;48.748;19.142;2023-09-19T06:00:20;21.37;;;16.30;;
9328;SDS011;4703;48.748;19.142;2023-09-19T06:05:20;16.77;;;14.40;;
9328;SDS011;4703;48.748;19.142;2023-09-19T06:07:47;19.00;;;15.60;;
9328;SDS011;4703;48.748;19.142;2023-09-19T06:10:15;20.20;;;15.20;;
9328;SDS011;4703;48.748;19.142;2023-09-19T06:12:43;18.10;;;16.13;;
9328;SDS011;4703;48.748;19.142;2023-09-19T06:15:11;17.23;;;15.40;;
9328;SDS011;4703;48.748;19.142;2023-09-19T06:17:51;17.10;;;15.30;;
9328;SDS011;4703;48.748;19.142;2023-09-19T06:20:23;16.70;;;14.53;;
9328;SDS011;4703;48.748;19.142;2023-09-19T06:22:52;16.60;;;14.83;;
9328;SDS011;4703;48.748;19.142;2023-09-19T06:25:19;16.10;;;14.50;;
9328;SDS011;4703;48.748;19.142;2023-09-19T06:27:49;15.97;;;14.27;;
9328;SDS011;4703;48.748;19.142;2023-09-19T06:30:23;17.20;;;15.47;;
9328;SDS011;4703;48.748;19.142;2023-09-19T06:32:55;17.27;;;15.07;;
9328;SDS011;4703;48.748;19.142;2023-09-19T06:35:31;18.07;;;14.30;;
9328;SDS011;4703;48.748;19.142;2023-09-19T06:38:04;15.77;;;13.17;;
9328;SDS011;4703;48.748;19.142;2023-09-19T06:40:33;14.40;;;13.00;;
9328;SDS011;4703;48.748;19.142;2023-09-19T06:43:01;13.73;;;12.40;;
9328;SDS011;4703;48.748;19.142;2023-09-19T06:45:29;16.10;;;14.57;;
9328;SDS011;4703;48.748;19.142;2023-09-19T06:47:58;14.00;;;12.60;;
9328;SDS011;4703;48.748;19.142;2023-09-19T06:50:26;12.10;;;10.90;;
9328;SDS011;4703;48.748;19.142;2023-09-19T06:52:54;12.43;;;11.40;;
9328;SDS011;4703;48.748;19.142;2023-09-19T06:55:23;12.10;;;10.97;;
9328;SDS011;4703;48.748;19.142;2023-09-19T06:57:51;12.43;;;11.33;;
9328;SDS011;4703;48.748;19.142;2023-09-19T07:00:20;14.57;;;12.30;;
9328;SDS011;4703;48.748;19.142;2023-09-19T07:02:58;12.87;;;11.57;;
9328;SDS011;4703;48.748;19.142;2023-09-19T07:05:28;11.70;;;10.60;;
9328;SDS011;4703;48.748;19.142;2023-09-19T07:07:55;11.37;;;10.33;;
9328;SDS011;4703;48.748;19.142;2023-09-19T07:10:22;10.93;;;10.03;;
9328;SDS011;4703;48.748;19.142;2023-09-19T07:13:03;21.57;;;18.67;;
9328;SDS011;4703;48.748;19.142;2023-09-19T07:15:37;19.90;;;17.60;;
9328;SDS011;4703;48.748;19.142;2023-09-19T07:18:08;11.50;;;10.37;;
9328;SDS011;4703;48.748;19.142;2023-09-19T07:20:37;9.20;;;8.30;;
9328;SDS011;4703;48.748;19.142;2023-09-19T07:23:04;9.83;;;8.93;;
9328;SDS011;4703;48.748;19.142;2023-09-19T07:25:32;9.67;;;8.83;;
9328;SDS011;4703;48.748;19.142;2023-09-19T07:27:59;8.93;;;8.13;;
9328;SDS011;4703;48.748;19.142;2023-09-19T07:30:27;8.67;;;8.00;;
9328;SDS011;4703;48.748;19.142;2023-09-19T07:32:55;8.73;;;7.93;;
9328;SDS011;4703;48.748;19.142;2023-09-19T07:35:22;5.37;;;4.97;;
9328;SDS011;4703;48.748;19.142;2023-09-19T07:37:50;4.07;;;3.77;;
9328;SDS011;4703;48.748;19.142;2023-09-19T07:40:18;5.73;;;2.60;;
9328;SDS011;4703;48.748;19.142;2023-09-19T07:42:47;1.93;;;1.83;;
9328;SDS011;4703;48.748;19.142;2023-09-19T07:45:15;1.90;;;1.80;;
9328;SDS011;4703;48.748;19.142;2023-09-19T07:47:44;2.40;;;1.90;;
9328;SDS011;4703;48.748;19.142;2023-09-19T07:50:13;3.50;;;3.30;;
9328;SDS011;4703;48.748;19.142;2023-09-19T07:52:42;18.83;;;15.80;;
9328;SDS011;4703;48.748;19.142;2023-09-19T07:55:09;33.03;;;24.90;;
9328;SDS011;4703;48.748;19.142;2023-09-19T07:57:43;8.97;;;8.07;;
9328;SDS011;4703;48.748;19.142;2023-09-19T08:00:10;7.33;;;4.67;;
9328;SDS011;4703;48.748;19.142;2023-09-19T08:02:38;4.10;;;3.57;;
9328;SDS011;4703;48.748;19.142;2023-09-19T08:05:07;3.57;;;3.27;;
9328;SDS011;4703;48.748;19.142;2023-09-19T08:07:39;3.77;;;3.47;;
9328;SDS011;4703;48.748;19.142;2023-09-19T08:10:07;3.23;;;2.87;;
9328;SDS011;4703;48.748;19.142;2023-09-19T08:12:42;3.30;;;2.43;;
9328;SDS011;4703;48.748;19.142;2023-09-19T08:15:17;3.10;;;2.40;;
9328;SDS011;4703;48.748;19.142;2023-09-19T08:17:46;3.30;;;3.00;;
9328;SDS011;4703;48.748;19.142;2023-09-19T08:20:14;2.83;;;2.63;;
9328;SDS011;4703;48.748;19.142;2023-09-19T08:22:51;3.80;;;3.03;;
9328;SDS011;4703;48.748;19.142;2023-09-19T08:25:21;4.03;;;2.27;;
9328;SDS011;4703;48.748;19.142;2023-09-19T08:27:49;2.97;;;1.87;;
9328;SDS011;4703;48.748;19.142;2023-09-19T08:30:17;2.50;;;2.23;;
9328;SDS011;4703;48.748;19.142;2023-09-19T08:32:51;2.00;;;1.90;;
9328;SDS011;4703;48.748;19.142;2023-09-19T08:35:18;2.53;;;2.30;;
9328;SDS011;4703;48.748;19.142;2023-09-19T08:37:46;2.07;;;1.97;;
9328;SDS011;4703;48.748;19.142;2023-09-19T08:40:13;1.90;;;1.80;;
9328;SDS011;4703;48.748;19.142;2023-09-19T08:42:47;1.80;;;1.70;;
9328;SDS011;4703;48.748;19.142;2023-09-19T08:45:20;2.10;;;1.73;;
9328;SDS011;4703;48.748;19.142;2023-09-19T08:50:52;2.03;;;1.83;;
9328;SDS011;4703;48.748;19.142;2023-09-19T08:56:33;11.90;;;9.47;;
9328;SDS011;4703;48.748;19.142;2023-09-19T08:59:02;3.30;;;3.10;;
9328;SDS011;4703;48.748;19.142;2023-09-19T09:01:37;19.87;;;16.90;;
9328;SDS011;4703;48.748;19.142;2023-09-19T09:04:08;92.83;;;75.07;;
9328;SDS011;4703;48.748;19.142;2023-09-19T09:06:39;95.33;;;80.10;;
9328;SDS011;4703;48.748;19.142;2023-09-19T09:09:10;7.93;;;7.13;;
9328;SDS011;4703;48.748;19.142;2023-09-19T09:11:37;6.10;;;3.50;;
9328;SDS011;4703;48.748;19.142;2023-09-19T09:14:09;3.20;;;2.90;;
9328;SDS011;4703;48.748;19.142;2023-09-19T09:16:37;2.90;;;2.00;;
9328;SDS011;4703;48.748;19.142;2023-09-19T09:19:04;3.10;;;2.50;;
9328;SDS011;4703;48.748;19.142;2023-09-19T09:21:31;2.70;;;2.40;;
9328;SDS011;4703;48.748;19.142;2023-09-19T09:27:02;3.07;;;2.33;;
9328;SDS011;4703;48.748;19.142;2023-09-19T09:34:56;1.10;;;1.10;;
9328;SDS011;4703;48.748;19.142;2023-09-19T09:37:28;4.73;;;4.00;;
9328;SDS011;4703;48.748;19.142;2023-09-19T09:39:58;9.73;;;8.83;;
9328;SDS011;4703;48.748;19.142;2023-09-19T09:42:46;9.97;;;9.10;;
9328;SDS011;4703;48.748;19.142;2023-09-19T09:45:19;7.10;;;6.40;;
9328;SDS011;4703;48.748;19.142;2023-09-19T09:48:10;9.80;;;8.67;;
9328;SDS011;4703;48.748;19.142;2023-09-19T09:50:48;7.10;;;6.50;;
9328;SDS011;4703;48.748;19.142;2023-09-19T09:53:27;6.77;;;6.17;;
9328;SDS011;4703;48.748;19.142;2023-09-19T09:58:37;7.43;;;6.83;;
9328;SDS011;4703;48.748;19.142;2023-09-19T10:01:23;8.63;;;5.77;;
9328;SDS011;4703;48.748;19.142;2023-09-19T10:03:58;5.60;;;5.10;;
9328;SDS011;4703;48.748;19.142;2023-09-19T10:06:27;4.50;;;4.07;;
9328;SDS011;4703;48.748;19.142;2023-09-19T10:09:13;6.50;;;4.60;;
9328;SDS011;4703;48.748;19.142;2023-09-19T10:11:44;4.10;;;3.20;;
9328;SDS011;4703;48.748;19.142;2023-09-19T10:14:19;4.13;;;3.20;;
9328;SDS011;4703;48.748;19.142;2023-09-19T10:16:51;4.73;;;3.93;;
9328;SDS011;4703;48.748;19.142;2023-09-19T10:19:30;4.03;;;3.73;;
9328;SDS011;4703;48.748;19.142;2023-09-19T10:22:04;7.37;;;4.13;;
9328;SDS011;4703;48.748;19.142;2023-09-19T10:24:35;6.50;;;5.33;;
9328;SDS011;4703;48.748;19.142;2023-09-19T10:27:22;7.67;;;6.80;;
9328;SDS011;4703;48.748;19.142;2023-09-19T10:29:52;6.73;;;5.93;;
9328;SDS011;4703;48.748;19.142;2023-09-19T10:32:22;5.97;;;4.17;;
9328;SDS011;4703;48.748;19.142;2023-09-19T10:34:50;6.83;;;4.83;;
9328;SDS011;4703;48.748;19.142;2023-09-19T10:37:21;4.23;;;3.80;;
9328;SDS011;4703;48.748;19.142;2023-09-19T10:39:53;4.13;;;3.73;;
9328;SDS011;4703;48.748;19.142;2023-09-19T10:42:22;4.50;;;3.60;;
9328;SDS011;4703;48.748;19.142;2023-09-19T10:44:55;2.47;;;2.28;;
9328;SDS011;4703;48.748;19.142;2023-09-19T10:47:26;2.77;;;2.00;;
9328;SDS011;4703;48.748;19.142;2023-09-19T10:49:53;1.70;;;1.60;;
9328;SDS011;4703;48.748;19.142;2023-09-19T10:52:23;9.40;;;8.43;;
9328;SDS011;4703;48.748;19.142;2023-09-19T10:54:53;21.37;;;15.80;;
9328;SDS011;4703;48.748;19.142;2023-09-19T10:57:24;11.50;;;10.30;;
9328;SDS011;4703;48.748;19.142;2023-09-19T11:00:00;3.70;;;3.40;;
9328;SDS011;4703;48.748;19.142;2023-09-19T11:05:39;1.40;;;1.30;;
9328;SDS011;4703;48.748;19.142;2023-09-19T11:08:07;1.87;;;1.67;;
9328;SDS011;4703;48.748;19.142;2023-09-19T11:10:44;2.70;;;1.97;;
9328;SDS011;4703;48.748;19.142;2023-09-19T11:26:48;8.33;;;7.43;;
9328;SDS011;4703;48.748;19.142;2023-09-19T11:29:26;4.10;;;3.40;;
9328;SDS011;4703;48.748;19.142;2023-09-19T11:31:55;1.17;;;1.17;;
9328;SDS011;4703;48.748;19.142;2023-09-19T11:34:42;2.63;;;1.73;;
9328;SDS011;4703;48.748;19.142;2023-09-19T11:42:54;1.50;;;1.40;;
9328;SDS011;4703;48.748;19.142;2023-09-19T11:48:16;1.10;;;1.10;;
9328;SDS011;4703;48.748;19.142;2023-09-19T11:50:45;1.23;;;1.23;;
9328;SDS011;4703;48.748;19.142;2023-09-19T11:53:13;2.00;;;1.10;;
9328;SDS011;4703;48.748;19.142;2023-09-19T11:55:42;1.13;;;1.13;;
9328;SDS011;4703;48.748;19.142;2023-09-19T11:58:10;17.20;;;13.07;;
9328;SDS011;4703;48.748;19.142;2023-09-19T12:00:43;7.10;;;5.97;;
9328;SDS011;4703;48.748;19.142;2023-09-19T12:03:12;2.93;;;1.40;;
9328;SDS011;4703;48.748;19.142;2023-09-19T12:05:44;1.27;;;1.17;;
9328;SDS011;4703;48.748;19.142;2023-09-19T12:08:14;3.80;;;3.50;;
9328;SDS011;4703;48.748;19.142;2023-09-19T12:10:49;2.65;;;2.15;;
9328;SDS011;4703;48.748;19.142;2023-09-19T12:13:22;1.47;;;1.37;;
9328;SDS011;4703;48.748;19.142;2023-09-19T12:15:49;1.27;;;1.20;;
9328;SDS011;4703;48.748;19.142;2023-09-19T12:18:29;2.40;;;1.20;;
9328;SDS011;4703;48.748;19.142;2023-09-19T12:20:57;1.30;;;1.00;;
9328;SDS011;4703;48.748;19.142;2023-09-19T12:23:24;1.10;;;1.10;;
9328;SDS011;4703;48.748;19.142;2023-09-19T12:25:52;1.20;;;1.20;;
9328;SDS011;4703;48.748;19.142;2023-09-19T12:28:24;1.27;;;1.13;;
9328;SDS011;4703;48.748;19.142;2023-09-19T12:31:05;3.03;;;1.50;;
9328;SDS011;4703;48.748;19.142;2023-09-19T12:33:34;1.80;;;1.20;;
9328;SDS011;4703;48.748;19.142;2023-09-19T12:36:18;1.30;;;1.30;;
9328;SDS011;4703;48.748;19.142;2023-09-19T12:38:59;1.20;;;1.10;;
9328;SDS011;4703;48.748;19.142;2023-09-19T12:41:26;1.63;;;1.20;;
9328;SDS011;4703;48.748;19.142;2023-09-19T12:43:53;3.80;;;1.60;;
9328;SDS011;4703;48.748;19.142;2023-09-19T12:46:21;1.17;;;1.17;;
9328;SDS011;4703;48.748;19.142;2023-09-19T12:51:45;1.90;;;1.40;;
9328;SDS011;4703;48.748;19.142;2023-09-19T12:54:14;6.73;;;5.30;;
9328;SDS011;4703;48.748;19.142;2023-09-19T12:56:43;3.63;;;3.23;;
9328;SDS011;4703;48.748;19.142;2023-09-19T12:59:12;2.40;;;2.20;;
9328;SDS011;4703;48.748;19.142;2023-09-19T13:01:41;1.70;;;1.27;;
9328;SDS011;4703;48.748;19.142;2023-09-19T13:06:52;1.50;;;1.40;;
9328;SDS011;4703;48.748;19.142;2023-09-19T13:09:20;1.60;;;1.50;;
9328;SDS011;4703;48.748;19.142;2023-09-19T13:11:51;1.50;;;1.40;;
9328;SDS011;4703;48.748;19.142;2023-09-19T13:14:23;1.07;;;1.07;;
9328;SDS011;4703;48.748;19.142;2023-09-19T13:17:06;1.30;;;1.20;;
9328;SDS011;4703;48.748;19.142;2023-09-19T13:19:43;1.00;;;1.00;;
9328;SDS011;4703;48.748;19.142;2023-09-19T13:25:02;1.20;;;1.20;;
9328;SDS011;4703;48.748;19.142;2023-09-19T13:27:32;1.60;;;1.50;;
9328;SDS011;4703;48.748;19.142;2023-09-19T13:30:00;1.50;;;1.40;;
9328;SDS011;4703;48.748;19.142;2023-09-19T13:32:27;1.40;;;1.30;;
9328;SDS011;4703;48.748;19.142;2023-09-19T13:34:54;2.42;;;2.33;;
9328;SDS011;4703;48.748;19.142;2023-09-19T13:37:21;1.57;;;1.47;;
9328;SDS011;4703;48.748;19.142;2023-09-19T13:39:48;1.83;;;1.73;;
9328;SDS011;4703;48.748;19.142;2023-09-19T13:42:15;1.53;;;1.50;;
9328;SDS011;4703;48.748;19.142;2023-09-19T13:44:42;1.60;;;1.50;;
9328;SDS011;4703;48.748;19.142;2023-09-19T13:47:09;1.10;;;1.10;;
9328;SDS011;4703;48.748;19.142;2023-09-19T13:49:42;2.00;;;1.90;;
9328;SDS011;4703;48.748;19.142;2023-09-19T13:52:10;1.87;;;1.77;;
9328;SDS011;4703;48.748;19.142;2023-09-19T13:54:39;2.03;;;1.93;;
9328;SDS011;4703;48.748;19.142;2023-09-19T13:57:06;2.57;;;2.33;;
9328;SDS011;4703;48.748;19.142;2023-09-19T13:59:36;1.90;;;1.80;;
9328;SDS011;4703;48.748;19.142;2023-09-19T14:02:03;1.97;;;1.60;;
9328;SDS011;4703;48.748;19.142;2023-09-19T14:04:32;2.07;;;1.97;;
9328;SDS011;4703;48.748;19.142;2023-09-19T14:07:01;1.70;;;1.60;;
9328;SDS011;4703;48.748;19.142;2023-09-19T14:09:28;2.17;;;1.97;;
9328;SDS011;4703;48.748;19.142;2023-09-19T14:11:55;1.80;;;1.70;;
9328;SDS011;4703;48.748;19.142;2023-09-19T14:14:23;2.10;;;2.00;;
9328;SDS011;4703;48.748;19.142;2023-09-19T14:16:50;1.73;;;1.67;;
9328;SDS011;4703;48.748;19.142;2023-09-19T14:19:19;2.23;;;2.03;;
9328;SDS011;4703;48.748;19.142;2023-09-19T14:21:46;6.90;;;5.17;;
9328;SDS011;4703;48.748;19.142;2023-09-19T14:24:16;16.38;;;13.68;;
9328;SDS011;4703;48.748;19.142;2023-09-19T14:26:44;3.53;;;3.23;;
9328;SDS011;4703;48.748;19.142;2023-09-19T14:29:12;2.30;;;2.20;;
9328;SDS011;4703;48.748;19.142;2023-09-19T14:31:40;2.23;;;2.10;;
9328;SDS011;4703;48.748;19.142;2023-09-19T14:34:07;2.20;;;2.00;;
9328;SDS011;4703;48.748;19.142;2023-09-19T14:36:38;2.30;;;2.10;;
9328;SDS011;4703;48.748;19.142;2023-09-19T14:39:05;1.80;;;1.70;;
9328;SDS011;4703;48.748;19.142;2023-09-19T14:41:32;2.00;;;1.90;;
9328;SDS011;4703;48.748;19.142;2023-09-19T14:44:01;2.00;;;1.90;;
9328;SDS011;4703;48.748;19.142;2023-09-19T14:46:30;2.00;;;1.90;;
9328;SDS011;4703;48.748;19.142;2023-09-19T14:48:57;1.90;;;1.80;;
9328;SDS011;4703;48.748;19.142;2023-09-19T14:51:28;1.97;;;1.87;;
9328;SDS011;4703;48.748;19.142;2023-09-19T14:53:56;2.30;;;2.20;;
9328;SDS011;4703;48.748;19.142;2023-09-19T14:56:24;2.73;;;2.10;;
9328;SDS011;4703;48.748;19.142;2023-09-19T14:58:51;2.33;;;2.22;;
9328;SDS011;4703;48.748;19.142;2023-09-19T15:01:19;5.50;;;5.10;;
9328;SDS011;4703;48.748;19.142;2023-09-19T15:03:46;7.47;;;6.67;;
9328;SDS011;4703;48.748;19.142;2023-09-19T15:06:15;7.80;;;7.00;;
9328;SDS011;4703;48.748;19.142;2023-09-19T15:08:44;2.30;;;2.13;;
9328;SDS011;4703;48.748;19.142;2023-09-19T15:11:14;2.67;;;2.47;;
9328;SDS011;4703;48.748;19.142;2023-09-19T15:13:44;2.27;;;2.17;;
9328;SDS011;4703;48.748;19.142;2023-09-19T15:16:13;2.30;;;2.20;;
9328;SDS011;4703;48.748;19.142;2023-09-19T15:18:42;2.30;;;2.20;;
9328;SDS011;4703;48.748;19.142;2023-09-19T15:21:11;2.20;;;2.10;;
9328;SDS011;4703;48.748;19.142;2023-09-19T15:23:39;2.10;;;2.00;;
9328;SDS011;4703;48.748;19.142;2023-09-19T15:26:08;2.73;;;2.53;;
9328;SDS011;4703;48.748;19.142;2023-09-19T15:28:38;2.60;;;2.40;;
9328;SDS011;4703;48.748;19.142;2023-09-19T15:31:07;1.83;;;1.73;;
9328;SDS011;4703;48.748;19.142;2023-09-19T15:33:37;1.93;;;1.83;;
9328;SDS011;4703;48.748;19.142;2023-09-19T15:36:05;2.50;;;2.27;;
9328;SDS011;4703;48.748;19.142;2023-09-19T15:41:33;2.53;;;2.43;;
9328;SDS011;4703;48.748;19.142;2023-09-19T15:44:04;2.20;;;2.10;;
9328;SDS011;4703;48.748;19.142;2023-09-19T15:46:39;2.00;;;1.90;;
9328;SDS011;4703;48.748;19.142;2023-09-19T15:49:07;2.83;;;2.70;;
9328;SDS011;4703;48.748;19.142;2023-09-19T15:51:35;3.07;;;2.47;;
9328;SDS011;4703;48.748;19.142;2023-09-19T15:54:10;2.63;;;2.53;;
9328;SDS011;4703;48.748;19.142;2023-09-19T15:56:41;2.63;;;2.43;;
9328;SDS011;4703;48.748;19.142;2023-09-19T15:59:10;2.22;;;2.13;;
9328;SDS011;4703;48.748;19.142;2023-09-19T16:01:41;2.50;;;2.30;;
9328;SDS011;4703;48.748;19.142;2023-09-19T16:04:11;2.83;;;2.63;;
9328;SDS011;4703;48.748;19.142;2023-09-19T16:06:39;3.50;;;3.20;;
9328;SDS011;4703;48.748;19.142;2023-09-19T16:09:08;3.53;;;3.17;;
9328;SDS011;4703;48.748;19.142;2023-09-19T16:11:36;4.83;;;4.20;;
9328;SDS011;4703;48.748;19.142;2023-09-19T16:14:04;8.73;;;3.33;;
9328;SDS011;4703;48.748;19.142;2023-09-19T16:16:33;2.03;;;1.93;;
9328;SDS011;4703;48.748;19.142;2023-09-19T16:19:02;2.37;;;2.27;;